City of Spokane Valley, Washington
Current Conditions -  °F | °C
As of 5:53 AM on Thursday 27 Nov 2014 (Local Time) from KSFF Reporting Station
Overcast Overcast  
Wind Chill: 51°   Ceiling: 9500
Heat Index: 51°   Visibility: 10mi
Dew Point: 39°   Wind: 0mph
Humidity: 63%   Direction: NA
Pressure: 29.88"   Gusts: NA
Location:  47.6358°N, 117.252°W
Report Text: KSFF 271353Z 00000KT 10SM OVC095 11/04 A2988 RMK AO2 SLP123 T01060039
Loading
Personal Weather Stations






























Interactive Weather Map New forecast layout! Learn more

10-Day Weather Forecast

Advertisements
Track Severe Weather on mobile